Aérodrome :
LOGIN :

S'inscrire | Disclaimer

   EN    FR    IT 

 










Légende :    VFR   VFR Marginal   IFR   IFR Intensif   IFR Très Intensif
Visi : 
Plafond : 
>= 8 km
>= 3000ft
5 à 8 km
1000 à 3000 ft
1500m à 5 km
500 à 1000 ft
800 à 1500m
200 à 500 ft
< 800m
< 200 ft
Symboles :   Orages  Brouillard  Fortes neiges  Fortes précipitations  Vent > 20 kt
SIGMETs :   Divers  Orages  Givrage  Turbulence  Onde Orograph.  Cendres Volcan.






- Altitude de l'aérodrome : 235 ft
- Code IATA : BZG


EPBY - Bydgoszcz

DERNIER METAR :
  • 050400Z 13006KT 9999 -RA FEW018 13/11 Q0993

METARs EXPIRÉS :
  • 050330Z 14007KT 9999 -RA NSC 15/10 Q0993
  • 050300Z 14007KT 110V170 9999 -RA NSC 15/09 Q0993
  • 050230Z 13008KT 100V170 CAVOK 16/08 Q0993
  • 050200Z 12010KT 090V150 CAVOK 16/07 Q0993
  • 050130Z 12010KT CAVOK 16/07 Q0994

TAF TAF EPBY
Valide du 05 à 00h jusqu'au 06 à 00h UTC


042330Z 0500/0524 12010KT CAVOK
BECMG 0504/0506 6000 -RA SCT008 BKN014
TEMPO 0509/0515 3000 RA BKN005 BKN010
BECMG 0510/0512 22008KT
PROB30
TEMPO 0512/0517 4000 TSRA SCT006 BKN014CB
BECMG 0516/0518 CAVOK



MET'MAP, la Météo Aéronautique d'un coup d'oeil ! - Copyright ORBIFLY Décembre 2007 - Disclaimer

ORBIFLY MET'MAP TEAM :

Programmation & Développement : Alexandra Zaïnal
Sur une idée originale de : Baudouin d'Aumeries
Assistance à la programmation : Marc-Olivier Méhu
Soutien technique & logistique : Manuel Goepfert

Contact : metmap@orbifly.com




SOURCES & CREDITS :

   NOAA